Time;durP1;ratioP1;P1;durP2;ratioP2;P2;SDS_P1;SDS_P2;PMS_P1;PMS_P2;Temp;Humidity;BMP_temperature;BMP_pressure;BME280_temperature;BME280_humidity;BME280_pressure;Samples;Min_cycle;Max_cycle;Signal;HPM_P1;HPM_P2
2022/11/17 00:01:27;;;;;;;0.70;0.70;;;18.20;74.70;;;;;;5044372;28;43613;-75
2022/11/17 00:03:55;;;;;;;0.80;0.80;;;18.30;74.40;;;;;;5026680;28;44780;-75
2022/11/17 00:06:24;;;;;;;0.70;0.70;;;18.40;74.00;;;;;;5044670;28;43463;-74
2022/11/17 00:08:52;;;;;;;0.97;0.97;;;18.60;73.50;;;;;;5046475;28;43460;-74
2022/11/17 00:11:21;;;;;;;0.70;0.70;;;18.60;73.10;;;;;;5045806;28;43932;-75
2022/11/17 00:16:35;;;;;;;0.80;0.80;;;18.60;73.10;;;;;;5027043;28;43434;-75
2022/11/17 00:21:48;;;;;;;0.80;0.80;;;18.40;73.50;;;;;;5028906;28;45665;-76
2022/11/17 00:24:16;;;;;;;0.80;0.80;;;18.40;74.10;;;;;;5048699;28;44008;-74
2022/11/17 00:29:27;;;;;;;0.70;0.70;;;18.30;74.10;;;;;;5049114;28;43895;-73
2022/11/17 00:34:40;;;;;;;0.80;0.80;;;18.20;74.10;;;;;;5044300;28;43426;-75
2022/11/17 00:37:08;;;;;;;0.70;0.70;;;18.20;74.20;;;;;;5048715;28;44333;-74
2022/11/17 00:39:36;;;;;;;0.70;0.70;;;18.20;74.60;;;;;;5049029;28;43477;-77
2022/11/17 00:42:05;;;;;;;0.77;0.77;;;18.20;74.50;;;;;;5048830;28;43632;-76
2022/11/17 00:44:34;;;;;;;0.70;0.70;;;18.20;74.40;;;;;;5052679;28;44970;-76
2022/11/17 00:47:02;;;;;;;0.80;0.80;;;18.20;74.30;;;;;;5048485;28;43921;-74
2022/11/17 00:49:30;;;;;;;0.60;0.60;;;18.20;74.40;;;;;;5048478;28;43413;-74
2022/11/17 00:51:58;;;;;;;0.83;0.83;;;18.20;74.50;;;;;;5046639;28;43587;-75
2022/11/17 00:54:26;;;;;;;0.70;0.70;;;18.20;74.80;;;;;;5030393;28;44696;-73
2022/11/17 00:56:53;;;;;;;0.70;0.70;;;18.20;74.70;;;;;;5029763;28;43488;-75
2022/11/17 00:59:23;;;;;;;0.60;0.60;;;18.30;74.30;;;;;;5048008;28;43995;-74
2022/11/17 01:01:51;;;;;;;0.80;0.80;;;18.50;73.80;;;;;;5047270;28;43921;-75
2022/11/17 01:04:19;;;;;;;0.80;0.80;;;18.60;73.30;;;;;;5048235;28;43371;-76
2022/11/17 01:06:48;;;;;;;0.80;0.80;;;18.70;73.20;;;;;;5048516;28;43967;-77
2022/11/17 01:09:18;;;;;;;0.90;0.90;;;18.60;73.00;;;;;;5029885;28;43541;-76
2022/11/17 01:11:46;;;;;;;0.80;0.80;;;18.50;73.10;;;;;;5048506;28;43615;-74
2022/11/17 01:14:16;;;;;;;0.63;0.63;;;18.50;73.40;;;;;;5047936;28;43503;-75
2022/11/17 01:16:45;;;;;;;0.70;0.70;;;18.40;73.70;;;;;;5048308;28;43466;-75
2022/11/17 01:19:14;;;;;;;0.73;0.73;;;18.40;74.10;;;;;;5048627;28;43428;-75
2022/11/17 01:21:42;;;;;;;0.70;0.70;;;18.30;74.20;;;;;;5048469;28;43568;-75
2022/11/17 01:24:11;;;;;;;0.70;0.70;;;18.30;74.80;;;;;;5047939;28;43428;-76
2022/11/17 01:26:39;;;;;;;0.80;0.80;;;18.30;74.10;;;;;;5047557;28;43423;-74
2022/11/17 01:29:07;;;;;;;0.90;0.90;;;18.30;74.20;;;;;;5047890;28;43982;-76
2022/11/17 01:31:36;;;;;;;0.80;0.80;;;18.20;74.20;;;;;;5028987;28;45882;-76
2022/11/17 01:34:05;;;;;;;0.70;0.70;;;18.20;74.60;;;;;;5047902;28;43467;-76
2022/11/17 01:37:17;;;;;;;0.70;0.70;;;18.20;74.70;;;;;;5048066;28;43965;-75
2022/11/17 01:39:22;;;;;;;0.80;0.80;;;18.20;74.50;;;;;;5045513;28;43467;-75
2022/11/17 01:41:50;;;;;;;0.70;0.70;;;18.20;74.50;;;;;;5047811;28;44068;-77
2022/11/17 01:44:55;;;;;;;0.60;0.60;;;18.10;74.40;;;;;;5029221;28;44565;-75
2022/11/17 01:47:25;;;;;;;0.80;0.80;;;18.20;74.60;;;;;;4949755;28;43469;-76
2022/11/17 01:49:58;;;;;;;0.67;0.67;;;18.10;74.90;;;;;;5020138;28;43547;-74
2022/11/17 01:52:26;;;;;;;0.70;0.70;;;18.20;74.80;;;;;;5045581;28;44269;-76
2022/11/17 01:54:53;;;;;;;0.77;0.77;;;18.30;74.40;;;;;;5047566;28;43916;-75
2022/11/17 01:57:23;;;;;;;0.60;0.60;;;18.50;73.90;;;;;;5047724;28;43496;-77
2022/11/17 01:59:52;;;;;;;0.67;0.67;;;18.60;73.30;;;;;;5028743;28;43445;-77
2022/11/17 02:02:20;;;;;;;0.80;0.80;;;18.70;73.10;;;;;;5047157;28;43607;-76
2022/11/17 02:04:52;;;;;;;0.70;0.70;;;18.60;73.00;;;;;;5045236;28;44029;-76
2022/11/17 02:07:24;;;;;;;0.60;0.60;;;18.60;73.10;;;;;;5047715;28;44244;-76
2022/11/17 02:09:52;;;;;;;0.60;0.60;;;18.50;74.00;;;;;;5047900;28;43390;-73
2022/11/17 02:12:21;;;;;;;0.80;0.80;;;18.40;73.50;;;;;;5043723;28;43643;-76
2022/11/17 02:14:49;;;;;;;0.80;0.80;;;18.30;74.00;;;;;;5046969;28;43412;-74
2022/11/17 02:17:17;;;;;;;0.80;0.80;;;18.30;74.00;;;;;;5047790;28;43522;-74
2022/11/17 02:19:45;;;;;;;0.60;0.60;;;18.30;74.00;;;;;;5047732;28;43399;-76
2022/11/17 02:22:37;;;;;;;0.90;0.90;;;18.30;74.00;;;;;;5034395;28;45355;-74
2022/11/17 02:25:20;;;;;;;0.70;0.70;;;18.30;74.10;;;;;;5047348;28;43415;-74
2022/11/17 02:28:03;;;;;;;0.73;0.73;;;18.20;74.30;;;;;;5024146;28;44069;-75
2022/11/17 02:30:33;;;;;;;0.50;0.50;;;18.20;74.50;;;;;;5047488;28;43406;-76
2022/11/17 02:33:03;;;;;;;0.60;0.60;;;18.20;74.40;;;;;;5046856;28;44017;-74
2022/11/17 02:35:36;;;;;;;0.60;0.60;;;18.20;74.30;;;;;;5046581;28;43430;-76
2022/11/17 02:38:09;;;;;;;0.63;0.63;;;18.20;74.40;;;;;;5047182;28;43443;-75
2022/11/17 02:40:39;;;;;;;0.80;0.80;;;18.20;74.50;;;;;;5046980;28;43516;-74
2022/11/17 02:45:58;;;;;;;0.77;0.77;;;18.20;74.80;;;;;;5042105;28;43531;-74
2022/11/17 02:48:27;;;;;;;0.70;0.70;;;18.10;74.50;;;;;;5046907;28;43567;-74
2022/11/17 02:50:56;;;;;;;0.73;0.73;;;18.20;74.50;;;;;;5023538;28;43618;-76
2022/11/17 02:53:24;;;;;;;0.70;0.70;;;18.20;74.60;;;;;;5046785;28;43913;-77
2022/11/17 02:55:52;;;;;;;0.63;0.63;;;18.10;74.60;;;;;;5028346;28;44341;-75
2022/11/17 02:58:21;;;;;;;0.63;0.63;;;18.10;74.90;;;;;;5042460;28;43974;-77
2022/11/17 03:01:15;;;;;;;0.80;0.80;;;18.20;74.80;;;;;;5046553;28;43443;-76
2022/11/17 03:03:50;;;;;;;0.80;0.80;;;18.30;74.30;;;;;;5046474;28;43809;-75
2022/11/17 03:06:22;;;;;;;0.70;0.70;;;18.50;73.80;;;;;;5028024;28;44448;-76
2022/11/17 03:08:52;;;;;;;0.50;0.50;;;18.60;73.30;;;;;;5028366;28;43424;-76
2022/11/17 03:11:21;;;;;;;0.63;0.63;;;18.60;73.10;;;;;;5028613;28;43427;-76
2022/11/17 03:13:54;;;;;;;0.53;0.53;;;18.60;73.10;;;;;;5046224;28;43826;-75
2022/11/17 03:16:25;;;;;;;0.77;0.77;;;18.50;73.20;;;;;;5045080;28;43488;-77
2022/11/17 03:19:00;;;;;;;0.70;0.70;;;18.40;73.40;;;;;;5045590;28;43623;-76
2022/11/17 03:21:30;;;;;;;0.70;0.70;;;18.40;73.70;;;;;;5043414;28;43532;-76
2022/11/17 03:24:02;;;;;;;0.50;0.50;;;18.30;74.20;;;;;;5045724;28;43806;-77
2022/11/17 03:26:32;;;;;;;0.50;0.50;;;18.30;74.10;;;;;;5027690;28;45111;-75
2022/11/17 03:29:01;;;;;;;0.63;0.63;;;18.30;74.10;;;;;;5046346;28;43841;-76
2022/11/17 03:31:30;;;;;;;0.50;0.50;;;18.20;74.10;;;;;;5046484;28;43985;-75
2022/11/17 03:33:58;;;;;;;0.60;0.60;;;18.20;74.10;;;;;;5028058;28;45881;-75
2022/11/17 03:36:27;;;;;;;0.60;0.60;;;18.20;74.40;;;;;;5027795;28;44423;-75
2022/11/17 03:38:58;;;;;;;0.60;0.60;;;18.20;74.80;;;;;;5045922;28;43909;-74
2022/11/17 03:41:26;;;;;;;0.70;0.70;;;18.20;74.50;;;;;;5046475;28;43447;-77
2022/11/17 03:43:54;;;;;;;0.70;0.70;;;18.30;74.30;;;;;;5045854;28;43601;-76
2022/11/17 03:46:23;;;;;;;0.60;0.60;;;18.40;74.10;;;;;;5045523;28;43428;-76
2022/11/17 03:48:53;;;;;;;0.70;0.70;;;18.40;74.00;;;;;;5046342;28;43411;-75
2022/11/17 03:51:23;;;;;;;0.50;0.50;;;18.30;74.00;;;;;;5039359;28;43481;-76
2022/11/17 03:53:51;;;;;;;0.50;0.50;;;18.30;74.30;;;;;;5047633;28;43565;-75
2022/11/17 03:56:26;;;;;;;0.70;0.70;;;18.30;74.30;;;;;;5049432;28;44102;-75
2022/11/17 03:58:55;;;;;;;0.90;0.90;;;18.30;74.20;;;;;;5043000;28;43849;-75
2022/11/17 04:01:24;;;;;;;0.60;0.60;;;18.30;74.10;;;;;;5030995;28;43500;-74
2022/11/17 04:03:53;;;;;;;0.60;0.60;;;18.30;74.20;;;;;;5049534;28;44201;-75
2022/11/17 04:06:21;;;;;;;0.50;0.50;;;18.20;74.30;;;;;;5049303;28;43478;-75
2022/11/17 04:08:49;;;;;;;0.60;0.60;;;18.20;74.70;;;;;;5049553;28;43384;-76
2022/11/17 04:16:49;;;;;;;0.70;0.70;;;18.40;73.80;;;;;;5049427;28;44032;-76
2022/11/17 04:19:17;;;;;;;0.50;0.50;;;18.50;73.70;;;;;;5030964;28;43408;-75
2022/11/17 04:21:45;;;;;;;0.67;0.67;;;18.40;73.70;;;;;;5049422;28;43460;-75
2022/11/17 04:24:14;;;;;;;0.70;0.70;;;18.40;73.80;;;;;;5049006;28;43687;-76
2022/11/17 04:29:27;;;;;;;0.50;0.50;;;18.40;73.80;;;;;;5026253;28;43506;-76
2022/11/17 04:31:56;;;;;;;0.60;0.60;;;18.30;73.70;;;;;;5029362;28;43508;-76
2022/11/17 04:34:24;;;;;;;0.50;0.50;;;18.30;73.90;;;;;;5028891;28;43843;-75
2022/11/17 04:36:52;;;;;;;0.60;0.60;;;18.30;74.30;;;;;;5028627;28;43969;-77
2022/11/17 04:39:20;;;;;;;0.47;0.47;;;18.20;74.40;;;;;;5028905;28;43421;-76
2022/11/17 04:41:53;;;;;;;0.67;0.67;;;18.20;74.20;;;;;;5027237;28;43579;-77
2022/11/17 04:44:22;;;;;;;0.80;0.80;;;18.20;74.20;;;;;;5027009;28;44331;-75
2022/11/17 04:46:50;;;;;;;0.60;0.60;;;18.20;74.30;;;;;;5029039;28;43504;-75
2022/11/17 04:49:19;;;;;;;0.57;0.57;;;18.20;74.40;;;;;;5028728;28;43994;-75
2022/11/17 04:51:47;;;;;;;0.83;0.83;;;18.10;74.80;;;;;;5027889;28;43539;-74
2022/11/17 04:54:16;;;;;;;0.60;0.60;;;18.20;74.80;;;;;;5026956;28;43850;-76
2022/11/17 04:56:45;;;;;;;0.70;0.70;;;18.30;74.40;;;;;;5028340;28;43461;-74
2022/11/17 04:59:12;;;;;;;0.67;0.67;;;18.40;74.00;;;;;;5026874;28;44014;-76
2022/11/17 05:01:40;;;;;;;0.63;0.63;;;18.50;73.70;;;;;;5025237;28;43472;-75
2022/11/17 05:04:09;;;;;;;0.60;0.60;;;18.40;73.60;;;;;;5026359;28;43615;-76
2022/11/17 05:06:39;;;;;;;0.50;0.50;;;18.40;74.00;;;;;;5026374;28;45076;-74
2022/11/17 05:09:08;;;;;;;0.60;0.60;;;18.40;73.90;;;;;;5026049;28;43953;-74
2022/11/17 05:14:22;;;;;;;0.57;0.50;;;18.40;73.80;;;;;;5025929;28;45584;-76
2022/11/17 05:17:04;;;;;;;0.60;0.60;;;18.30;73.90;;;;;;5022956;28;45216;-74
2022/11/17 05:19:40;;;;;;;0.60;0.60;;;18.30;74.10;;;;;;5020557;28;43353;-75
2022/11/17 05:24:51;;;;;;;0.60;0.60;;;18.30;74.40;;;;;;5025600;28;45662;-74
2022/11/17 05:27:19;;;;;;;0.40;0.40;;;18.20;74.20;;;;;;5037174;28;43503;-74
2022/11/17 05:29:47;;;;;;;0.40;0.40;;;18.20;74.90;;;;;;5047981;28;43385;-77
2022/11/17 05:32:15;;;;;;;0.60;0.60;;;18.20;75.00;;;;;;5047268;28;43562;-73
2022/11/17 05:34:44;;;;;;;0.60;0.60;;;18.20;74.50;;;;;;5046045;28;43854;-76
2022/11/17 05:37:13;;;;;;;0.60;0.60;;;18.20;74.80;;;;;;5047846;28;43732;-77
2022/11/17 05:39:41;;;;;;;0.53;0.53;;;18.20;74.50;;;;;;5028731;28;43471;-77
2022/11/17 05:42:09;;;;;;;0.50;0.50;;;18.30;74.10;;;;;;5029994;28;43561;-75
2022/11/17 05:44:38;;;;;;;0.60;0.60;;;18.40;73.90;;;;;;5048046;28;43965;-74
2022/11/17 05:47:06;;;;;;;0.57;0.57;;;18.40;73.70;;;;;;5029628;28;44877;-75
2022/11/17 05:49:34;;;;;;;0.50;0.50;;;18.40;73.80;;;;;;5048073;28;43921;-75
2022/11/17 05:52:02;;;;;;;0.57;0.57;;;18.40;74.00;;;;;;5048107;28;43420;-76
2022/11/17 05:54:31;;;;;;;1.20;0.50;;;18.40;73.80;;;;;;5047606;28;43838;-74
2022/11/17 05:57:00;;;;;;;0.60;0.60;;;18.40;73.60;;;;;;5047796;28;43563;-76
2022/11/17 05:59:30;;;;;;;0.60;0.60;;;18.30;73.70;;;;;;5045961;28;43393;-75
2022/11/17 06:01:59;;;;;;;0.47;0.47;;;18.30;74.00;;;;;;5048040;28;43846;-76
2022/11/17 06:04:27;;;;;;;0.50;0.50;;;18.20;74.30;;;;;;5046117;28;43632;-74
2022/11/17 06:06:57;;;;;;;0.60;0.60;;;18.20;74.50;;;;;;5033022;28;44458;-75
2022/11/17 06:09:26;;;;;;;1.37;0.50;;;18.20;74.10;;;;;;5046888;28;43373;-73
2022/11/17 06:11:55;;;;;;;0.60;0.60;;;18.20;74.20;;;;;;5047947;28;43507;-74
2022/11/17 06:14:31;;;;;;;0.50;0.50;;;18.20;74.30;;;;;;5028690;28;45343;-74
2022/11/17 06:17:00;;;;;;;0.60;0.60;;;18.10;74.30;;;;;;5039921;28;43439;-75
2022/11/17 06:19:30;;;;;;;0.40;0.40;;;18.20;74.70;;;;;;5041106;28;43386;-75
2022/11/17 06:21:58;;;;;;;0.60;0.60;;;18.20;74.70;;;;;;5047553;28;43446;-76
2022/11/17 06:24:42;;;;;;;0.60;0.60;;;18.30;74.30;;;;;;5028809;28;44154;-73
2022/11/17 06:27:11;;;;;;;0.63;0.63;;;18.40;73.90;;;;;;5046995;28;43324;-74
2022/11/17 06:29:39;;;;;;;0.60;0.57;;;18.40;73.60;;;;;;5029038;28;43414;-73
2022/11/17 06:32:12;;;;;;;0.50;0.50;;;18.40;73.60;;;;;;5047699;28;43628;-74
2022/11/17 06:34:40;;;;;;;0.60;0.60;;;18.40;73.90;;;;;;5046632;28;43651;-75
2022/11/17 06:37:08;;;;;;;0.67;0.67;;;18.40;73.90;;;;;;5046910;28;43483;-73
2022/11/17 06:39:35;;;;;;;0.63;0.63;;;18.40;73.70;;;;;;5047120;28;43914;-75
2022/11/17 06:42:03;;;;;;;1.43;0.60;;;18.30;73.70;;;;;;5044628;28;43404;-76
2022/11/17 06:44:33;;;;;;;0.50;0.50;;;18.30;73.70;;;;;;5046723;28;43592;-74
2022/11/17 06:47:01;;;;;;;0.50;0.50;;;18.30;73.90;;;;;;5026584;28;44394;-76
2022/11/17 06:49:29;;;;;;;0.60;0.60;;;18.30;74.40;;;;;;5047036;28;43404;-72
2022/11/17 06:51:57;;;;;;;0.63;0.63;;;18.30;74.30;;;;;;5046368;28;43515;-76
2022/11/17 06:54:25;;;;;;;0.60;0.60;;;18.30;74.00;;;;;;5046616;28;43845;-74
2022/11/17 06:56:54;;;;;;;0.50;0.50;;;18.20;74.00;;;;;;5046868;28;43497;-76
2022/11/17 06:59:22;;;;;;;0.50;0.50;;;18.20;74.00;;;;;;5046643;28;43929;-76
2022/11/17 07:01:51;;;;;;;0.50;0.50;;;18.20;74.20;;;;;;5047408;28;43421;-76
2022/11/17 07:04:19;;;;;;;0.60;0.60;;;18.10;74.60;;;;;;5046111;28;44009;-76
2022/11/17 07:06:47;;;;;;;0.70;0.70;;;18.30;74.60;;;;;;5046288;28;43424;-74
2022/11/17 07:09:15;;;;;;;0.80;0.80;;;18.40;74.20;;;;;;5046726;28;43439;-74
2022/11/17 07:11:43;;;;;;;0.80;0.80;;;18.50;73.80;;;;;;5047217;28;43943;-74
2022/11/17 07:14:11;;;;;;;0.60;0.60;;;18.50;73.50;;;;;;5046396;28;43666;-76
2022/11/17 07:16:41;;;;;;;0.60;0.60;;;18.40;73.30;;;;;;5046449;28;43455;-75
2022/11/17 07:19:11;;;;;;;0.47;0.47;;;18.50;73.90;;;;;;5048155;28;43447;-74
2022/11/17 07:21:40;;;;;;;0.60;0.60;;;18.40;73.70;;;;;;5046834;28;43405;-74
2022/11/17 07:24:08;;;;;;;0.53;0.53;;;18.40;73.50;;;;;;5046350;28;43886;-74
2022/11/17 07:26:36;;;;;;;0.60;0.60;;;18.40;73.50;;;;;;5046305;28;43400;-73
2022/11/17 07:29:04;;;;;;;0.70;0.70;;;18.30;73.60;;;;;;5046593;28;43508;-74
2022/11/17 07:31:34;;;;;;;0.40;0.40;;;18.30;73.80;;;;;;5045387;28;43910;-75
2022/11/17 07:34:02;;;;;;;0.50;0.50;;;18.30;75.10;;;;;;5027979;28;45849;-74
2022/11/17 07:36:31;;;;;;;0.60;0.60;;;18.30;74.30;;;;;;5046547;28;43531;-76
2022/11/17 07:39:00;;;;;;;0.73;0.73;;;18.30;74.10;;;;;;5045664;28;43412;-74
2022/11/17 07:41:28;;;;;;;0.60;0.60;;;18.20;73.90;;;;;;5028500;28;43426;-76
2022/11/17 07:43:56;;;;;;;0.60;0.60;;;18.20;74.10;;;;;;5027809;28;46465;-76
2022/11/17 07:46:24;;;;;;;0.70;0.70;;;18.20;74.40;;;;;;5046188;28;43885;-75
2022/11/17 07:48:53;;;;;;;0.50;0.50;;;18.20;74.70;;;;;;5046522;28;43305;-74
2022/11/17 07:51:21;;;;;;;0.70;0.70;;;18.30;74.50;;;;;;5028097;28;43408;-75
2022/11/17 07:53:50;;;;;;;0.60;0.60;;;18.40;74.10;;;;;;5045129;28;43818;-75
2022/11/17 07:56:18;;;;;;;0.80;0.80;;;18.50;73.50;;;;;;5046014;28;43376;-77
2022/11/17 07:58:46;;;;;;;0.43;0.43;;;18.60;73.20;;;;;;5029158;28;44403;-77
2022/11/17 08:01:14;;;;;;;0.50;0.50;;;18.60;73.00;;;;;;5045105;28;43464;-76
2022/11/17 08:03:43;;;;;;;0.70;0.70;;;18.60;73.00;;;;;;5044980;28;43615;-76
2022/11/17 08:06:11;;;;;;;0.67;0.67;;;18.50;73.10;;;;;;5045729;28;44060;-74
2022/11/17 08:08:39;;;;;;;0.50;0.50;;;18.40;73.30;;;;;;5046213;28;44115;-75
2022/11/17 08:11:11;;;;;;;0.60;0.60;;;18.30;74.20;;;;;;5046780;28;44272;-75
2022/11/17 08:13:40;;;;;;;0.50;0.50;;;18.30;74.00;;;;;;5045765;28;43900;-76
2022/11/17 08:16:08;;;;;;;0.80;0.80;;;18.30;73.90;;;;;;5045992;28;43412;-75
2022/11/17 08:18:36;;;;;;;0.60;0.60;;;18.30;74.00;;;;;;5027994;28;43454;-74
2022/11/17 08:21:05;;;;;;;0.70;0.70;;;18.30;74.00;;;;;;5046717;28;43421;-76
2022/11/17 08:23:33;;;;;;;0.70;0.70;;;18.20;74.00;;;;;;5045409;28;43613;-76
2022/11/17 08:26:02;;;;;;;0.97;0.97;;;18.20;74.40;;;;;;5038938;28;43367;-76
2022/11/17 08:28:32;;;;;;;0.50;0.50;;;18.20;74.50;;;;;;5045215;28;43989;-75
2022/11/17 08:31:01;;;;;;;0.33;0.33;;;18.30;74.30;;;;;;5040041;28;43496;-74
2022/11/17 08:33:29;;;;;;;0.57;0.57;;;18.30;74.00;;;;;;5011272;28;45696;-76
2022/11/17 08:35:57;;;;;;;0.50;0.50;;;18.40;73.90;;;;;;5027370;28;45021;-74
2022/11/17 08:38:27;;;;;;;0.50;0.50;;;18.30;73.80;;;;;;5027545;28;43444;-74
2022/11/17 08:40:55;;;;;;;0.70;0.70;;;18.30;74.20;;;;;;5049577;28;43476;-74
2022/11/17 08:43:24;;;;;;;0.70;0.70;;;18.30;74.30;;;;;;5049042;28;43620;-76
2022/11/17 08:45:53;;;;;;;0.40;0.40;;;18.30;74.10;;;;;;5048797;28;43431;-76
2022/11/17 08:48:21;;;;;;;0.50;0.50;;;18.30;74.10;;;;;;5049322;28;43388;-76
2022/11/17 08:50:49;;;;;;;0.50;0.50;;;18.30;74.20;;;;;;5048756;28;43428;-76
2022/11/17 08:53:18;;;;;;;0.73;0.73;;;18.20;74.20;;;;;;5048892;28;43741;-75
2022/11/17 08:55:46;;;;;;;0.60;0.60;;;18.20;74.60;;;;;;5048657;28;43422;-74
2022/11/17 08:58:15;;;;;;;0.80;0.80;;;18.20;74.50;;;;;;5030789;28;43376;-74
2022/11/17 09:00:44;;;;;;;0.77;0.77;;;18.20;74.40;;;;;;5048726;28;43410;-76
2022/11/17 09:03:13;;;;;;;0.87;0.87;;;18.20;74.40;;;;;;5048277;28;43857;-73
2022/11/17 09:05:43;;;;;;;0.50;0.50;;;18.20;74.50;;;;;;5048218;28;44013;-75
2022/11/17 09:08:13;;;;;;;0.60;0.60;;;18.10;74.50;;;;;;5046344;28;43916;-76
2022/11/17 09:11:04;;;;;;;0.47;0.47;;;18.10;74.80;;;;;;5047985;28;43455;-76
2022/11/17 09:13:32;;;;;;;0.57;0.57;;;18.20;74.80;;;;;;5048318;28;43989;-75
2022/11/17 09:16:01;;;;;;;0.93;0.60;;;18.30;74.30;;;;;;5048241;28;43506;-73
2022/11/17 09:18:30;;;;;;;0.77;0.77;;;18.50;73.90;;;;;;5048537;28;43424;-74
2022/11/17 09:21:00;;;;;;;0.50;0.50;;;18.60;73.40;;;;;;5048704;28;44059;-73
2022/11/17 09:23:31;;;;;;;0.70;0.70;;;18.60;73.10;;;;;;5048597;28;43753;-75
2022/11/17 09:26:04;;;;;;;0.53;0.53;;;18.60;73.00;;;;;;5030298;28;44586;-76
2022/11/17 09:28:32;;;;;;;0.60;0.60;;;18.50;73.10;;;;;;5042233;28;43460;-76
2022/11/17 09:31:06;;;;;;;0.60;0.60;;;18.40;73.20;;;;;;5048829;28;43469;-75
2022/11/17 09:33:35;;;;;;;0.47;0.47;;;18.40;73.50;;;;;;5048685;28;43688;-76
2022/11/17 09:36:06;;;;;;;0.60;0.60;;;18.30;74.00;;;;;;5048432;28;44144;-74
2022/11/17 09:38:34;;;;;;;0.60;0.60;;;18.30;74.00;;;;;;5029929;28;43575;-75
2022/11/17 09:41:08;;;;;;;0.80;0.80;;;18.30;74.00;;;;;;5048980;28;44196;-75
2022/11/17 09:43:37;;;;;;;0.60;0.60;;;18.30;74.10;;;;;;5029952;28;46091;-74
2022/11/17 09:46:09;;;;;;;0.53;0.53;;;18.20;74.10;;;;;;5048340;28;43489;-77
2022/11/17 09:48:40;;;;;;;0.50;0.50;;;18.20;74.30;;;;;;5048268;28;43561;-76
2022/11/17 09:51:12;;;;;;;0.70;0.70;;;18.20;74.60;;;;;;5028337;28;43380;-74
2022/11/17 09:53:43;;;;;;;0.53;0.53;;;18.20;74.50;;;;;;5027442;28;45772;-75
2022/11/17 09:56:12;;;;;;;0.60;0.60;;;18.20;74.50;;;;;;5047709;28;43475;-75
2022/11/17 09:58:43;;;;;;;0.70;0.70;;;18.20;74.40;;;;;;5047907;28;43397;-75
2022/11/17 10:01:12;;;;;;;0.63;0.63;;;18.10;74.40;;;;;;5047224;28;43518;-74
2022/11/17 10:03:42;;;;;;;0.60;0.60;;;18.10;74.60;;;;;;5029323;28;45887;-74
2022/11/17 10:06:15;;;;;;;0.73;0.73;;;18.10;74.90;;;;;;5028828;28;44270;-73
2022/11/17 10:08:49;;;;;;;0.77;0.77;;;18.20;74.60;;;;;;5048029;28;44172;-75
2022/11/17 10:11:32;;;;;;;0.60;0.60;;;18.30;74.20;;;;;;5048000;28;43444;-74
2022/11/17 10:14:12;;;;;;;0.90;0.90;;;18.50;73.80;;;;;;5047606;28;43952;-77
2022/11/17 10:16:41;;;;;;;0.60;0.60;;;18.60;73.30;;;;;;5045036;28;43433;-76
2022/11/17 10:19:17;;;;;;;0.60;0.60;;;18.60;73.10;;;;;;5047194;28;43441;-73
2022/11/17 10:21:46;;;;;;;0.57;0.57;;;18.60;73.30;;;;;;5048070;28;43349;-76
2022/11/17 10:24:35;;;;;;;0.70;0.70;;;18.50;73.30;;;;;;5029572;28;45607;-76
2022/11/17 10:27:04;;;;;;;0.80;0.80;;;18.40;73.60;;;;;;5047385;28;43467;-76
2022/11/17 10:29:32;;;;;;;0.73;0.73;;;18.30;73.80;;;;;;5029616;28;43716;-75
2022/11/17 10:32:01;;;;;;;0.70;0.70;;;18.30;74.20;;;;;;5047632;28;43385;-76
2022/11/17 10:34:32;;;;;;;0.80;0.80;;;18.30;74.10;;;;;;5047245;28;43920;-76
2022/11/17 10:37:23;;;;;;;0.70;0.70;;;18.20;74.00;;;;;;5028825;28;44716;-75
2022/11/17 10:39:51;;;;;;;0.60;0.60;;;18.20;74.10;;;;;;5047300;28;44063;-77
2022/11/17 10:42:23;;;;;;;0.90;0.90;;;18.20;74.20;;;;;;5029476;28;43774;-75
2022/11/17 10:44:52;;;;;;;0.70;0.70;;;18.20;74.60;;;;;;5047170;28;43870;-74
2022/11/17 10:47:28;;;;;;;0.83;0.83;;;18.20;74.60;;;;;;5028954;28;45123;-76
2022/11/17 10:50:18;;;;;;;0.60;0.60;;;18.20;74.50;;;;;;5045842;28;43531;-76
2022/11/17 10:52:46;;;;;;;0.60;0.60;;;18.20;74.40;;;;;;5026233;28;43563;-77
2022/11/17 10:55:25;;;;;;;0.70;0.70;;;18.10;74.40;;;;;;5028066;28;45849;-74
2022/11/17 10:57:55;;;;;;;0.70;0.70;;;18.10;74.50;;;;;;5046209;28;43455;-76
2022/11/17 11:00:28;;;;;;;0.70;0.70;;;18.20;74.90;;;;;;5046811;28;43430;-76
2022/11/17 11:03:04;;;;;;;0.80;0.80;;;18.20;74.70;;;;;;5028659;28;43570;-75
2022/11/17 11:05:34;;;;;;;0.73;0.73;;;18.30;74.30;;;;;;5040582;28;43861;-75
2022/11/17 11:08:14;;;;;;;0.70;0.70;;;18.50;73.80;;;;;;5046980;28;43403;-76
2022/11/17 11:10:42;;;;;;;0.70;0.70;;;18.60;73.30;;;;;;5028607;28;44110;-76
2022/11/17 11:13:13;;;;;;;0.67;0.67;;;18.60;73.10;;;;;;5028797;28;43588;-76
2022/11/17 11:15:41;;;;;;;0.77;0.70;;;18.60;73.10;;;;;;5046471;28;43980;-76
2022/11/17 11:18:11;;;;;;;0.70;0.70;;;18.50;73.20;;;;;;5046918;28;43489;-74
2022/11/17 11:20:43;;;;;;;3.40;3.00;;;18.40;73.40;;;;;;5046696;28;43492;-77
2022/11/17 11:23:15;;;;;;;2.13;2.03;;;18.40;73.70;;;;;;5047371;28;43467;-76
2022/11/17 11:25:48;;;;;;;14.97;7.47;;;18.40;74.10;;;;;;5046733;28;43892;-76
2022/11/17 11:28:22;;;;;;;26.40;12.33;;;18.30;74.00;;;;;;5046432;28;43396;-76
2022/11/17 11:30:55;;;;;;;28.80;14.10;;;18.30;74.00;;;;;;5046436;28;43356;-77
2022/11/17 11:33:27;;;;;;;13.27;8.63;;;18.30;74.10;;;;;;5047064;28;43456;-76
2022/11/17 11:36:03;;;;;;;12.33;7.50;;;18.30;74.70;;;;;;5040352;28;44057;-77
2022/11/17 11:38:38;;;;;;;8.77;5.87;;;18.30;74.30;;;;;;5046210;28;43464;-75
2022/11/17 11:41:19;;;;;;;7.37;5.90;;;18.30;74.40;;;;;;5046695;28;43440;-74
2022/11/17 11:43:53;;;;;;;10.10;6.63;;;18.20;74.10;;;;;;5043990;28;43427;-76
2022/11/17 11:46:23;;;;;;;8.13;5.87;;;18.20;74.10;;;;;;5044103;28;43957;-76
2022/11/17 11:48:52;;;;;;;9.13;6.47;;;18.30;74.30;;;;;;5046179;28;44051;-74
2022/11/17 11:51:25;;;;;;;8.50;6.33;;;18.30;74.30;;;;;;5048769;28;43439;-75
2022/11/17 11:53:54;;;;;;;7.27;5.70;;;18.20;74.50;;;;;;5046385;28;43423;-76
2022/11/17 11:56:25;;;;;;;9.40;6.13;;;18.20;74.60;;;;;;5046188;28;43850;-75
2022/11/17 11:58:57;;;;;;;10.27;6.20;;;18.30;74.30;;;;;;5045791;28;43947;-76
2022/11/17 12:01:25;;;;;;;7.30;6.37;;;18.40;73.80;;;;;;5027327;28;43451;-73
2022/11/17 12:03:57;;;;;;;7.13;6.40;;;18.60;73.40;;;;;;5046572;28;43421;-75
2022/11/17 12:06:41;;;;;;;8.97;6.70;;;18.70;73.20;;;;;;5041203;28;43984;-74
2022/11/17 12:09:27;;;;;;;9.70;6.80;;;18.70;72.90;;;;;;5046163;28;43408;-76
2022/11/17 12:12:01;;;;;;;7.07;5.87;;;18.60;73.00;;;;;;5029548;28;43544;-75
2022/11/17 12:14:30;;;;;;;9.07;6.70;;;18.50;73.20;;;;;;5029117;28;43563;-76
2022/11/17 12:17:06;;;;;;;9.17;6.67;;;18.40;73.40;;;;;;5048070;28;45350;-76
2022/11/17 12:19:52;;;;;;;8.73;6.20;;;18.40;74.70;;;;;;5049097;28;43386;-76
2022/11/17 12:22:57;;;;;;;8.00;6.07;;;18.30;74.00;;;;;;5030971;28;44077;-75
2022/11/17 12:25:28;;;;;;;6.70;5.90;;;18.30;73.80;;;;;;5048939;28;43411;-76
2022/11/17 12:27:56;;;;;;;9.53;6.07;;;18.30;73.90;;;;;;5049057;28;43740;-74
2022/11/17 12:30:55;;;;;;;9.50;6.20;;;18.30;74.00;;;;;;5049152;28;43902;-73
2022/11/17 12:33:40;;;;;;;8.90;6.13;;;18.20;74.10;;;;;;5049276;28;43808;-77
2022/11/17 12:36:16;;;;;;;7.20;6.50;;;18.20;74.50;;;;;;5044518;28;43394;-74
2022/11/17 12:38:45;;;;;;;8.93;6.30;;;18.20;74.20;;;;;;5049043;28;43912;-76
2022/11/17 12:41:14;;;;;;;6.80;6.07;;;18.20;74.10;;;;;;5030792;28;44375;-75
2022/11/17 12:43:42;;;;;;;7.60;6.03;;;18.20;74.20;;;;;;5045906;28;43990;-73
2022/11/17 12:46:15;;;;;;;9.77;6.83;;;18.20;74.40;;;;;;5049274;28;43427;-74
2022/11/17 12:48:46;;;;;;;6.43;5.80;;;18.10;74.60;;;;;;5030790;28;45780;-77
2022/11/17 12:51:15;;;;;;;6.40;5.70;;;18.20;74.80;;;;;;5048815;28;43498;-74
2022/11/17 12:53:55;;;;;;;6.83;5.50;;;18.30;74.60;;;;;;5049029;28;43364;-75
2022/11/17 12:56:49;;;;;;;5.57;4.77;;;18.40;74.10;;;;;;5049271;28;43515;-76
2022/11/17 12:59:51;;;;;;;6.23;5.57;;;18.50;73.80;;;;;;5048643;28;44048;-75
2022/11/17 13:02:28;;;;;;;6.53;5.77;;;18.50;73.60;;;;;;5037573;28;43444;-75
2022/11/17 13:04:57;;;;;;;6.37;5.50;;;18.40;73.90;;;;;;5026324;28;43456;-73
2022/11/17 13:07:26;;;;;;;5.53;5.03;;;18.40;73.90;;;;;;5048943;28;43437;-77
2022/11/17 13:09:55;;;;;;;7.03;5.30;;;18.40;73.80;;;;;;5048540;28;44883;-74
2022/11/17 13:12:25;;;;;;;8.27;5.23;;;18.40;73.80;;;;;;5048476;28;43459;-74
2022/11/17 13:14:54;;;;;;;7.73;4.90;;;18.30;73.80;;;;;;5048525;28;43383;-74
2022/11/17 13:17:26;;;;;;;5.33;4.83;;;18.30;74.00;;;;;;5045835;28;43472;-76
2022/11/17 13:20:01;;;;;;;5.10;4.60;;;18.30;74.40;;;;;;5048299;28;43914;-74
2022/11/17 13:22:29;;;;;;;5.03;4.53;;;18.30;74.30;;;;;;5048634;28;43459;-74
2022/11/17 13:24:57;;;;;;;5.30;4.70;;;18.30;74.20;;;;;;5029810;28;43558;-75
2022/11/17 13:27:28;;;;;;;5.20;4.70;;;18.30;74.30;;;;;;5048361;28;43473;-74
2022/11/17 13:30:14;;;;;;;5.23;4.53;;;18.20;74.30;;;;;;5048193;28;43912;-77
2022/11/17 13:32:42;;;;;;;5.30;4.80;;;18.20;74.60;;;;;;5044362;28;43556;-75